Time;durP1;ratioP1;P1;durP2;ratioP2;P2;SDS_P1;SDS_P2;PMS_P1;PMS_P2;Temp;Humidity;BMP_temperature;BMP_pressure;BME280_temperature;BME280_humidity;BME280_pressure;Samples;Min_cycle;Max_cycle;Signal;HPM_P1;HPM_P2
2022/08/30 00:02:56;;;;;;;;;;;;;;;;;;;;;
2022/08/30 00:05:22;;;;;;;14.53;12.20;;;;;;;24.36;59.08;100391.95;1709691;82;21000;-73
2022/08/30 00:07:54;;;;;;;14.17;11.50;;;;;;;24.34;59.29;100395.59;1719670;82;21601;-73
2022/08/30 00:10:28;;;;;;;13.80;12.10;;;;;;;24.29;59.49;100394.52;1698963;84;21018;-73
2022/08/30 00:13:11;;;;;;;14.27;12.27;;;;;;;24.25;59.63;100398.52;1685211;83;21633;-73
2022/08/30 00:15:48;;;;;;;14.60;11.87;;;;;;;24.25;59.75;100400.44;1710847;82;21006;-73
2022/08/30 00:18:16;;;;;;;14.63;12.03;;;;;;;24.23;59.79;100393.98;1719260;83;21066;-73
2022/08/30 00:20:58;;;;;;;15.00;11.57;;;;;;;24.21;60.03;100396.83;1711763;82;21130;-73
2022/08/30 00:23:37;;;;;;;;;;;;;;;;;;;;;
2022/08/30 00:26:18;;;;;;;;;;;;;;;;;;;;;
2022/08/30 00:28:55;;;;;;;13.87;11.70;;;;;;;24.16;60.28;100401.21;1689849;83;21059;-73
2022/08/30 00:31:26;;;;;;;14.73;11.67;;;;;;;24.13;60.36;100404.06;1658302;84;21047;-72
2022/08/30 00:34:15;;;;;;;16.70;11.80;;;;;;;24.11;60.40;100408.49;1717800;82;21067;-72
2022/08/30 00:36:37;;;;;;;14.70;12.53;;;;;;;24.10;60.39;100412.38;1683842;84;20980;-74
2022/08/30 00:39:20;;;;;;;13.90;12.20;;;;;;;24.09;60.38;100407.28;1684478;83;21098;-72
2022/08/30 00:41:56;;;;;;;;;;;;;;;;;;;;;
2022/08/30 00:44:19;;;;;;;13.90;12.00;;;;;;;24.09;60.45;100401.25;1734051;82;21044;-72
2022/08/30 00:46:55;;;;;;;15.10;12.87;;;;;;;24.03;60.55;100406.75;1706119;83;21358;-72
2022/08/30 00:49:39;;;;;;;;;;;;;;;;;;;;;
2022/08/30 00:52:11;;;;;;;14.93;11.87;;;;;;;23.90;60.83;100405.24;1717193;82;21003;-73
2022/08/30 00:54:48;;;;;;;;;;;;;;;;;;;;;
2022/08/30 00:57:28;;;;;;;13.63;12.07;;;;;;;23.77;61.52;100401.00;1715567;83;21538;-74
2022/08/30 00:59:48;;;;;;;14.60;13.00;;;;;;;23.75;61.67;100404.64;1683243;83;21048;-75
2022/08/30 01:02:21;;;;;;;14.00;11.80;;;;;;;23.73;61.72;100404.22;1710945;83;21071;-74
2022/08/30 01:05:00;;;;;;;14.67;12.47;;;;;;;23.72;61.77;100405.34;1715124;82;21000;-73
2022/08/30 01:07:43;;;;;;;;;;;;;;;;;;;;;
2022/08/30 01:10:17;;;;;;;;;;;;;;;;;;;;;
2022/08/30 01:12:45;;;;;;;15.28;12.55;;;;;;;23.67;61.93;100409.66;1701813;82;21036;-74
2022/08/30 01:15:24;;;;;;;14.40;12.17;;;;;;;23.61;62.08;100407.17;1715518;83;21043;-73
2022/08/30 01:18:02;;;;;;;14.10;12.10;;;;;;;23.57;62.21;100409.02;1691140;83;20959;-73
2022/08/30 01:21:07;;;;;;;14.63;11.70;;;;;;;23.52;62.37;100416.08;1716484;82;21158;-74
2022/08/30 01:23:52;;;;;;;15.57;12.70;;;;;;;23.48;62.46;100412.47;1717154;83;21429;-73
2022/08/30 01:26:23;;;;;;;14.70;12.77;;;;;;;23.46;62.58;100424.31;1713049;82;21024;-73
2022/08/30 01:29:06;;;;;;;15.80;13.47;;;;;;;23.42;62.78;100415.22;1714213;82;21439;-73
2022/08/30 01:31:36;;;;;;;14.77;12.97;;;;;;;23.41;62.91;100423.18;1688375;83;20940;-72
2022/08/30 01:34:08;;;;;;;13.90;12.40;;;;;;;23.39;62.99;100420.78;1715683;83;21091;-72
2022/08/30 01:36:43;;;;;;;15.10;13.00;;;;;;;23.39;63.08;100419.99;1709827;82;21055;-73
2022/08/30 01:39:28;;;;;;;;;;;;;;;;;;;;;
2022/08/30 01:41:57;;;;;;;15.47;12.97;;;;;;;23.34;63.22;100421.62;1714324;83;21262;-72
2022/08/30 01:44:30;;;;;;;13.83;12.30;;;;;;;23.30;63.30;100420.73;1682424;83;21021;-73
2022/08/30 01:47:05;;;;;;;13.60;12.13;;;;;;;23.27;63.33;100418.70;1688082;83;21108;-72
2022/08/30 01:49:35;;;;;;;16.30;12.63;;;;;;;23.25;63.45;100422.33;1715363;83;21067;-73
2022/08/30 01:52:05;;;;;;;13.97;12.53;;;;;;;23.20;63.62;100416.56;1717506;82;21039;-72
2022/08/30 01:54:50;;;;;;;;;;;;;;;;;;;;;
2022/08/30 01:57:20;;;;;;;14.73;11.97;;;;;;;23.16;63.84;100413.73;1710056;82;21147;-72
2022/08/30 02:00:01;;;;;;;15.17;12.43;;;;;;;23.15;63.99;100422.23;1706019;82;21079;-72
2022/08/30 02:02:40;;;;;;;14.53;12.90;;;;;;;23.10;64.12;100421.92;1683919;83;21059;-72
2022/08/30 02:05:16;;;;;;;14.63;12.13;;;;;;;23.08;64.13;100420.10;1715295;82;20996;-73
2022/08/30 02:07:46;;;;;;;13.80;12.40;;;;;;;23.05;64.24;100428.17;1704622;83;21685;-73
2022/08/30 02:10:28;;;;;;;14.47;11.37;;;;;;;23.03;64.25;100427.71;1708226;82;21600;-73
2022/08/30 02:13:04;;;;;;;;;;;;;;;;;;;;;
2022/08/30 02:15:40;;;;;;;14.77;11.97;;;;;;;22.97;64.26;100427.72;1700746;83;21053;-73
2022/08/30 02:18:16;;;;;;;;;;;;;;;;;;;;;
2022/08/30 02:20:40;;;;;;;14.30;12.33;;;;;;;22.87;64.44;100438.52;1681065;83;21502;-73
2022/08/30 02:23:20;;;;;;;14.10;11.60;;;;;;;22.83;64.62;100441.10;1717660;82;21023;-73
2022/08/30 02:26:02;;;;;;;14.18;11.57;;;;;;;22.84;64.60;100437.27;1713773;82;21067;-73
2022/08/30 02:28:38;;;;;;;;;;;;;;;;;;;;;
2022/08/30 02:31:02;;;;;;;14.30;11.63;;;;;;;22.81;64.67;100437.16;1711237;82;21047;-72
2022/08/30 02:33:38;;;;;;;16.07;12.50;;;;;;;22.75;64.77;100438.52;1715290;82;21233;-73
2022/08/30 02:36:20;;;;;;;;;;;;;;;;;;;;;
2022/08/30 02:38:45;;;;;;;15.70;13.30;;;;;;;22.65;65.32;100456.11;1715020;82;21051;-73
2022/08/30 02:41:22;;;;;;;14.40;12.70;;;;;;;22.56;65.58;100458.94;1713052;82;21043;-73
2022/08/30 02:43:59;;;;;;;;;;;;;;;;;;;;;
2022/08/30 02:46:30;;;;;;;16.60;12.90;;;;;;;22.48;65.94;100459.85;1708997;82;21960;-72
2022/08/30 02:49:04;;;;;;;14.33;12.90;;;;;;;22.47;65.94;100465.05;1715822;82;21063;-72
2022/08/30 02:51:37;;;;;;;16.33;13.17;;;;;;;22.43;66.01;100463.57;1717714;82;21058;-73
2022/08/30 02:54:19;;;;;;;;;;;;;;;;;;;;;
2022/08/30 02:56:46;;;;;;;15.77;13.00;;;;;;;22.37;66.76;100468.22;1713357;82;21019;-72
2022/08/30 02:59:29;;;;;;;13.97;12.50;;;;;;;22.36;66.86;100468.00;1711111;82;21092;-72
2022/08/30 03:01:55;;;;;;;14.60;12.63;;;;;;;22.35;66.91;100474.58;1711419;82;21067;-73
2022/08/30 03:04:39;;;;;;;14.57;12.40;;;;;;;22.32;66.88;100473.89;1713047;83;21019;-72
2022/08/30 03:07:21;;;;;;;15.38;13.25;;;;;;;22.29;66.93;100475.36;1682158;82;21024;-72
2022/08/30 03:09:59;;;;;;;;;;;;;;;;;;;;;
2022/08/30 03:12:28;;;;;;;14.37;12.27;;;;;;;22.18;67.19;100476.37;1713683;83;21091;-73
2022/08/30 03:15:02;;;;;;;17.20;13.57;;;;;;;22.17;67.30;100483.48;1697629;83;20968;-73
2022/08/30 03:17:34;;;;;;;13.83;12.00;;;;;;;22.17;67.29;100481.56;1719714;82;21039;-73
2022/08/30 03:20:23;;;;;;;;;;;;;;;;;;;;;
2022/08/30 03:22:58;;;;;;;15.33;13.73;;;;;;;22.16;67.50;100483.27;1715647;83;21090;-73
2022/08/30 03:25:36;;;;;;;;;;;;;;;;;;;;;
2022/08/30 03:28:00;;;;;;;15.33;13.57;;;;;;;22.14;67.57;100475.97;1733425;81;21147;-74
2022/08/30 03:30:39;;;;;;;14.47;12.98;;;;;;;22.15;67.74;100481.13;1687286;83;21051;-72
2022/08/30 03:33:23;;;;;;;14.60;13.10;;;;;;;22.13;67.82;100481.98;1706719;82;21186;-72
2022/08/30 03:35:52;;;;;;;15.70;13.43;;;;;;;22.10;67.95;100477.21;1715908;82;21010;-73
2022/08/30 03:38:27;;;;;;;15.23;12.83;;;;;;;22.09;68.02;100487.08;1707157;83;21106;-73
2022/08/30 03:41:04;;;;;;;15.87;13.70;;;;;;;22.05;68.11;100491.04;1718315;81;22212;-72
2022/08/30 03:43:50;;;;;;;;;;;;;;;;;;;;;
2022/08/30 03:46:22;;;;;;;16.60;14.80;;;;;;;22.08;68.21;100493.09;1712368;83;21068;-72
2022/08/30 03:48:54;;;;;;;13.87;12.10;;;;;;;22.07;68.25;100488.76;1688801;83;21047;-74
2022/08/30 03:51:32;;;;;;;15.03;13.17;;;;;;;22.08;68.31;100489.55;1709325;83;21032;-73
2022/08/30 03:54:12;;;;;;;16.03;13.80;;;;;;;22.07;68.47;100501.56;1730228;82;21054;-72
2022/08/30 03:59:19;;;;;;;17.13;13.70;;;;;;;22.05;68.72;100499.77;1699933;82;21080;-73
2022/08/30 04:01:50;;;;;;;15.37;13.73;;;;;;;22.09;68.73;100506.13;1716605;82;21703;-73
2022/08/30 04:04:33;;;;;;;;;;;;;;;;;;;;;
2022/08/30 04:07:00;;;;;;;16.57;14.80;;;;;;;22.05;68.90;100511.44;1707463;83;21106;-72
2022/08/30 04:09:33;;;;;;;16.43;13.87;;;;;;;22.06;69.01;100513.02;1704676;83;21125;-72
2022/08/30 04:12:15;;;;;;;15.70;14.03;;;;;;;22.07;69.07;100520.04;1712818;82;21082;-73
2022/08/30 04:14:43;;;;;;;17.93;16.03;;;;;;;22.06;69.18;100518.46;1711365;82;20982;-72
2022/08/30 04:17:13;;;;;;;18.47;16.60;;;;;;;22.08;69.14;100532.53;1685396;83;21510;-72
2022/08/30 04:20:02;;;;;;;;;;;;;;;;;;;;;
2022/08/30 04:22:28;;;;;;;17.77;15.87;;;;;;;22.02;69.22;100524.34;1713275;83;21027;-73
2022/08/30 04:25:09;;;;;;;;;;;;;;;;;;;;;
2022/08/30 04:27:33;;;;;;;17.33;15.63;;;;;;;21.98;69.54;100524.22;1690157;83;21118;-72
2022/08/30 04:30:18;;;;;;;18.77;16.83;;;;;;;22.00;69.70;100532.83;1717659;82;21474;-74
2022/08/30 04:32:47;;;;;;;17.93;16.00;;;;;;;22.02;69.80;100536.59;1709450;82;21043;-74
2022/08/30 04:35:29;;;;;;;19.10;16.07;;;;;;;22.09;69.69;100538.19;1710599;83;21470;-73
2022/08/30 04:38:10;;;;;;;18.43;16.30;;;;;;;22.09;69.47;100544.99;1715785;82;21039;-73
2022/08/30 04:40:51;;;;;;;18.23;16.23;;;;;;;22.06;69.27;100544.30;1718122;82;21029;-73
2022/08/30 04:43:39;;;;;;;;;;;;;;;;;;;;;
2022/08/30 04:46:09;;;;;;;17.93;16.13;;;;;;;22.06;69.36;100536.14;1720282;83;20968;-73
2022/08/30 04:48:36;;;;;;;15.20;13.63;;;;;;;22.04;69.33;100538.38;1715569;82;21015;-71
2022/08/30 04:51:06;;;;;;;17.77;15.37;;;;;;;22.04;69.35;100534.30;1728088;82;21832;-73
2022/08/30 04:53:34;;;;;;;17.07;15.27;;;;;;;22.04;69.30;100543.83;1715277;83;21043;-73
2022/08/30 04:56:03;;;;;;;15.07;13.57;;;;;;;22.08;69.43;100544.77;1715403;82;21878;-73
2022/08/30 04:58:30;;;;;;;16.43;14.67;;;;;;;22.09;69.41;100557.80;1716716;82;21007;-73
2022/08/30 05:00:57;;;;;;;16.37;14.67;;;;;;;22.09;69.44;100553.16;1715279;82;21016;-72
2022/08/30 05:03:23;;;;;;;15.77;14.13;;;;;;;22.13;69.41;100557.36;1713480;82;21245;-73
2022/08/30 05:05:50;;;;;;;16.47;14.80;;;;;;;22.16;69.24;100554.00;1715536;82;21070;-73
2022/08/30 05:08:19;;;;;;;16.30;14.60;;;;;;;22.21;69.10;100557.31;1715766;82;21144;-74
2022/08/30 05:10:50;;;;;;;13.90;12.50;;;;;;;22.26;68.97;100549.49;1714076;82;21036;-72
2022/08/30 05:13:18;;;;;;;15.00;13.50;;;;;;;22.34;68.87;100561.41;1713081;83;21110;-72
2022/08/30 05:15:45;;;;;;;15.43;12.97;;;;;;;22.39;68.64;100552.47;1715971;82;21538;-74
2022/08/30 05:18:13;;;;;;;13.30;12.00;;;;;;;22.46;68.52;100550.56;1722082;82;20999;-73
2022/08/30 05:20:40;;;;;;;13.40;12.10;;;;;;;22.56;68.41;100561.02;1714856;82;21633;-73
2022/08/30 05:23:06;;;;;;;14.57;12.03;;;;;;;22.65;67.93;100556.84;1709677;82;20968;-73
2022/08/30 05:25:36;;;;;;;13.73;12.33;;;;;;;22.72;67.33;100561.16;1715938;82;21644;-74
2022/08/30 05:28:03;;;;;;;13.63;12.03;;;;;;;22.76;67.06;100556.61;1715000;82;21066;-75
2022/08/30 05:30:32;;;;;;;13.67;11.97;;;;;;;22.83;66.85;100552.76;1716910;82;21056;-73
2022/08/30 05:32:58;;;;;;;14.27;11.50;;;;;;;22.92;66.59;100552.66;1726186;82;21136;-72
2022/08/30 05:35:25;;;;;;;12.40;10.90;;;;;;;22.99;66.07;100550.19;1715142;82;21058;-74
2022/08/30 05:37:53;;;;;;;11.43;10.33;;;;;;;23.05;65.99;100553.48;1709461;82;21090;-73
2022/08/30 05:40:20;;;;;;;11.13;9.93;;;;;;;23.11;65.49;100555.63;1716902;83;21029;-73
2022/08/30 05:42:46;;;;;;;10.90;9.70;;;;;;;23.16;65.05;100556.78;1718083;83;21063;-72
2022/08/30 05:45:14;;;;;;;11.00;9.90;;;;;;;23.20;65.05;100554.70;1718785;82;21985;-75
2022/08/30 05:47:41;;;;;;;11.80;9.77;;;;;;;23.23;64.80;100552.12;1718783;83;21070;-73
2022/08/30 05:50:10;;;;;;;10.27;9.17;;;;;;;23.31;64.82;100550.40;1684463;82;21083;-74
2022/08/30 05:52:38;;;;;;;10.47;9.00;;;;;;;23.41;64.25;100550.71;1709306;83;21637;-73
2022/08/30 05:55:06;;;;;;;9.10;8.03;;;;;;;23.55;63.84;100548.19;1712752;82;21079;-73
2022/08/30 05:57:35;;;;;;;9.27;7.50;;;;;;;23.68;63.41;100546.22;1714839;82;21926;-73
2022/08/30 06:00:06;;;;;;;8.90;7.27;;;;;;;23.75;62.22;100550.54;1715554;82;21019;-73
2022/08/30 06:02:35;;;;;;;9.00;8.10;;;;;;;23.75;61.89;100531.45;1714555;82;21086;-72
2022/08/30 06:05:03;;;;;;;9.30;8.33;;;;;;;23.80;61.70;100544.28;1716502;82;21048;-71
2022/08/30 06:07:30;;;;;;;10.27;7.40;;;;;;;23.88;61.59;100547.99;1715575;82;21593;-73
2022/08/30 06:09:56;;;;;;;8.97;7.60;;;;;;;23.95;61.39;100545.45;1715486;82;21245;-73
2022/08/30 06:12:24;;;;;;;8.50;7.27;;;;;;;24.01;61.40;100547.38;1715545;82;21027;-72
2022/08/30 06:14:51;;;;;;;9.80;7.87;;;;;;;24.06;60.95;100545.77;1717193;82;21158;-73
2022/08/30 06:17:18;;;;;;;8.80;7.50;;;;;;;23.99;60.37;100542.28;1715985;82;21059;-73
2022/08/30 06:19:44;;;;;;;8.13;7.17;;;;;;;23.99;60.84;100550.47;1717798;82;20991;-73
2022/08/30 06:22:11;;;;;;;8.60;7.03;;;;;;;24.11;60.32;100552.33;1726630;82;21228;-73
2022/08/30 06:24:38;;;;;;;7.87;7.03;;;;;;;24.23;60.19;100550.13;1715664;83;21556;-74
2022/08/30 06:27:05;;;;;;;9.10;7.27;;;;;;;24.38;60.04;100547.97;1715378;82;21657;-73
2022/08/30 06:29:31;;;;;;;7.60;6.80;;;;;;;24.54;59.51;100544.71;1716031;82;21536;-72
2022/08/30 06:31:58;;;;;;;7.73;6.93;;;;;;;24.66;58.89;100545.21;1718376;83;21055;-74
2022/08/30 06:34:25;;;;;;;7.20;6.50;;;;;;;24.72;58.46;100547.91;1718773;83;21428;-74
2022/08/30 06:36:53;;;;;;;7.67;6.87;;;;;;;24.85;58.47;100551.34;1716071;82;21109;-73
2022/08/30 06:39:19;;;;;;;7.80;7.00;;;;;;;24.95;57.82;100548.06;1714211;82;21642;-73
2022/08/30 06:41:46;;;;;;;7.33;6.63;;;;;;;25.02;57.91;100542.76;1715736;82;21114;-73
2022/08/30 06:44:23;;;;;;;6.70;6.00;;;;;;;25.04;57.10;100544.58;1713508;82;21420;-72
2022/08/30 06:46:49;;;;;;;8.03;5.90;;;;;;;25.02;56.58;100537.30;1718533;83;21176;-74
2022/08/30 06:49:16;;;;;;;6.67;5.97;;;;;;;25.02;56.61;100537.88;1732912;82;21498;-71
2022/08/30 06:51:43;;;;;;;8.07;6.13;;;;;;;25.09;56.85;100538.03;1717442;82;21286;-74
2022/08/30 06:54:12;;;;;;;7.20;6.50;;;;;;;25.16;56.36;100536.85;1715694;82;21063;-72
2022/08/30 06:56:39;;;;;;;6.80;5.63;;;;;;;25.24;56.12;100541.34;1716263;82;21581;-74
2022/08/30 06:59:05;;;;;;;7.27;5.80;;;;;;;25.31;54.86;100550.86;1715539;82;21186;-72
2022/08/30 07:01:32;;;;;;;6.67;5.80;;;;;;;25.37;54.73;100547.48;1717390;83;21067;-73
2022/08/30 07:04:00;;;;;;;6.20;5.57;;;;;;;25.45;54.07;100545.69;1716998;83;21021;-76
2022/08/30 07:06:28;;;;;;;6.83;5.50;;;;;;;25.46;53.43;100546.69;1729607;82;21000;-74
2022/08/30 07:08:54;;;;;;;8.10;5.40;;;;;;;25.55;53.98;100542.97;1728553;82;21110;-73
2022/08/30 07:11:32;;;;;;;5.70;5.10;;;;;;;25.71;54.23;100545.06;1718584;83;21153;-73
2022/08/30 07:14:01;;;;;;;6.07;5.23;;;;;;;25.89;52.81;100545.44;1718279;83;21681;-72
2022/08/30 07:16:29;;;;;;;7.07;5.10;;;;;;;26.01;52.08;100541.19;1718331;82;21074;-73
2022/08/30 07:18:57;;;;;;;5.33;4.43;;;;;;;26.05;51.32;100551.63;1714839;82;21461;-73
2022/08/30 07:21:33;;;;;;;8.03;4.83;;;;;;;26.11;51.28;100547.44;1715683;82;21558;-74
2022/08/30 07:24:00;;;;;;;5.27;4.50;;;;;;;26.19;50.91;100559.30;1715294;82;21769;-73
2022/08/30 07:26:37;;;;;;;5.77;4.90;;;;;;;26.23;50.69;100549.81;1716175;82;21098;-74
2022/08/30 07:29:04;;;;;;;5.73;4.70;;;;;;;26.28;50.19;100546.18;1716871;82;21059;-73
2022/08/30 07:31:35;;;;;;;5.67;4.30;;;;;;;26.32;49.73;100553.09;1715085;82;21060;-74
2022/08/30 07:34:05;;;;;;;7.40;4.83;;;;;;;26.31;49.66;100543.30;1715788;82;21015;-75
2022/08/30 07:36:33;;;;;;;6.65;4.95;;;;;;;26.30;49.36;100550.72;1715349;82;21551;-73
2022/08/30 07:39:00;;;;;;;5.47;4.90;;;;;;;26.34;49.23;100554.89;1715950;82;21161;-74
2022/08/30 07:41:29;;;;;;;5.57;4.77;;;;;;;26.49;49.17;100536.23;1715271;82;21102;-73
2022/08/30 07:43:56;;;;;;;5.63;4.87;;;;;;;26.60;48.76;100547.36;1715720;82;21035;-74
2022/08/30 07:46:23;;;;;;;5.20;4.70;;;;;;;26.69;48.64;100545.16;1717618;83;21068;-74
2022/08/30 07:48:50;;;;;;;6.30;5.17;;;;;;;26.82;48.38;100552.03;1717302;83;21542;-74
2022/08/30 07:51:20;;;;;;;6.27;4.77;;;;;;;26.85;48.07;100549.11;1724074;82;21043;-73
2022/08/30 07:53:46;;;;;;;4.70;4.20;;;;;;;26.92;47.63;100547.88;1717374;82;21098;-74
2022/08/30 07:56:13;;;;;;;5.47;4.10;;;;;;;26.99;46.21;100547.98;1714976;82;21047;-73
2022/08/30 07:58:40;;;;;;;6.03;4.40;;;;;;;27.08;46.31;100553.19;1715172;82;21106;-73
2022/08/30 08:01:09;;;;;;;6.80;4.23;;;;;;;27.13;45.27;100550.95;1716651;82;21132;-74
2022/08/30 08:03:36;;;;;;;4.80;4.10;;;;;;;27.21;45.55;100551.05;1715807;82;21068;-72
2022/08/30 08:06:03;;;;;;;6.67;3.97;;;;;;;27.25;45.11;100543.11;1687466;83;21553;-74
2022/08/30 08:08:30;;;;;;;5.73;4.40;;;;;;;27.29;44.86;100539.83;1715366;82;21548;-73
2022/08/30 08:10:57;;;;;;;6.50;4.03;;;;;;;27.33;45.03;100546.73;1716287;82;21031;-73
2022/08/30 08:13:25;;;;;;;5.90;4.00;;;;;;;27.38;44.21;100556.58;1714234;82;21609;-73
2022/08/30 08:15:52;;;;;;;7.23;3.97;;;;;;;27.41;44.11;100541.56;1718040;82;21095;-73
2022/08/30 08:18:19;;;;;;;4.83;3.70;;;;;;;27.48;42.59;100542.23;1720459;82;21487;-73
2022/08/30 08:20:45;;;;;;;5.27;4.40;;;;;;;27.51;42.57;100535.42;1746346;82;21031;-74
2022/08/30 08:23:12;;;;;;;5.70;3.83;;;;;;;27.56;42.51;100541.94;1747534;82;21020;-72
2022/08/30 08:25:40;;;;;;;6.37;3.90;;;;;;;27.59;41.83;100541.78;1741630;82;21248;-73
2022/08/30 08:28:07;;;;;;;6.30;3.70;;;;;;;27.61;42.27;100542.21;1716496;82;21031;-73
2022/08/30 08:30:36;;;;;;;4.43;3.73;;;;;;;27.68;41.37;100542.88;1715358;82;21204;-72
2022/08/30 08:33:04;;;;;;;6.20;4.00;;;;;;;27.70;40.90;100535.05;1715045;82;21111;-72
2022/08/30 08:35:32;;;;;;;5.03;3.80;;;;;;;27.70;40.98;100531.71;1715281;82;21106;-73
2022/08/30 08:37:59;;;;;;;4.70;3.33;;;;;;;27.80;41.69;100537.94;1715695;82;21235;-73
2022/08/30 08:40:27;;;;;;;5.83;3.67;;;;;;;27.95;41.93;100531.25;1714958;82;21067;-72
2022/08/30 08:43:13;;;;;;;4.23;3.50;;;;;;;28.03;39.67;100526.81;1715309;82;21034;-72
2022/08/30 08:46:06;;;;;;;5.33;3.57;;;;;;;28.13;39.84;100530.05;1715811;82;21114;-74
2022/08/30 08:48:48;;;;;;;4.80;3.10;;;;;;;28.25;39.17;100531.16;1713198;83;21075;-72
2022/08/30 08:54:29;;;;;;;5.87;3.30;;;;;;;28.32;38.20;100527.70;1714370;82;21154;-71
2022/08/30 08:56:55;;;;;;;5.97;3.60;;;;;;;28.35;38.53;100533.22;1715835;82;22366;-74
2022/08/30 08:59:22;;;;;;;6.03;3.30;;;;;;;28.35;38.80;100531.06;1715487;82;21054;-74
2022/08/30 09:01:49;;;;;;;6.17;3.40;;;;;;;28.44;37.47;100535.69;1717482;83;21495;-72
2022/08/30 09:04:21;;;;;;;4.50;3.10;;;;;;;28.40;36.53;100523.89;1724412;82;21117;-73
2022/08/30 09:06:57;;;;;;;5.83;3.23;;;;;;;28.31;35.95;100511.02;1734338;82;20976;-72
2022/08/30 09:09:29;;;;;;;6.53;3.10;;;;;;;28.37;35.89;100526.77;1716025;83;21091;-73
2022/08/30 09:11:56;;;;;;;4.33;3.00;;;;;;;28.42;35.78;100528.41;1715453;82;21476;-74
2022/08/30 09:14:26;;;;;;;4.93;3.20;;;;;;;28.34;35.93;100522.03;1716003;82;21184;-72
2022/08/30 09:17:00;;;;;;;4.60;3.13;;;;;;;28.43;35.84;100541.78;1687537;82;21130;-73
2022/08/30 09:19:35;;;;;;;5.03;3.10;;;;;;;28.47;35.67;100532.97;1718007;83;21454;-73
2022/08/30 09:22:28;;;;;;;4.83;3.20;;;;;;;28.49;36.14;100525.71;1721168;82;21020;-73
2022/08/30 09:25:19;;;;;;;5.87;3.00;;;;;;;28.54;36.26;100526.75;1711860;82;21039;-73
2022/08/30 09:27:48;;;;;;;4.53;3.00;;;;;;;28.65;35.66;100528.20;1715149;82;21063;-72
2022/08/30 09:30:25;;;;;;;6.83;3.10;;;;;;;28.72;35.80;100531.78;1717825;83;21802;-72
2022/08/30 09:33:00;;;;;;;5.03;3.23;;;;;;;28.77;35.42;100523.79;1713466;82;20937;-74
2022/08/30 09:35:41;;;;;;;5.63;3.30;;;;;;;28.77;35.93;100526.53;1713923;83;21554;-71
2022/08/30 09:38:12;;;;;;;5.80;3.08;;;;;;;28.85;35.81;100527.37;1715715;83;21060;-70
2022/08/30 09:40:43;;;;;;;5.53;2.70;;;;;;;28.90;34.00;100530.56;1702716;82;21535;-73
2022/08/30 09:43:18;;;;;;;7.65;3.08;;;;;;;28.87;33.97;100525.03;1715357;82;21206;-72
2022/08/30 09:45:59;;;;;;;5.07;2.60;;;;;;;28.90;33.07;100525.06;1710549;82;21071;-72
2022/08/30 09:48:31;;;;;;;5.95;2.80;;;;;;;28.93;32.61;100527.64;1711196;82;20977;-73
2022/08/30 09:51:13;;;;;;;5.33;3.00;;;;;;;28.93;33.45;100526.27;1717752;82;21540;-73
2022/08/30 09:54:16;;;;;;;4.60;3.13;;;;;;;28.95;33.59;100528.81;1718901;83;21100;-72
2022/08/30 09:57:12;;;;;;;4.40;2.90;;;;;;;28.93;33.68;100529.02;1717994;83;21775;-74
2022/08/30 09:59:50;;;;;;;5.00;3.00;;;;;;;28.87;33.53;100534.07;1731124;81;20975;-71
2022/08/30 10:02:38;;;;;;;5.00;3.00;;;;;;;28.90;33.83;100524.27;1710895;82;21158;-72
2022/08/30 10:05:52;;;;;;;4.67;2.90;;;;;;;28.82;33.62;100532.25;1713189;82;20980;-73
2022/08/30 10:08:49;;;;;;;5.30;3.13;;;;;;;28.81;34.04;100532.06;1714702;82;21041;-72
2022/08/30 10:11:38;;;;;;;5.90;3.17;;;;;;;28.84;33.80;100523.05;1717457;82;21261;-72
2022/08/30 10:14:49;;;;;;;5.67;2.80;;;;;;;28.78;33.13;100519.86;1710814;83;20990;-72
2022/08/30 10:17:47;;;;;;;4.85;2.92;;;;;;;28.75;33.62;100526.91;1708412;83;21048;-71
2022/08/30 10:20:34;;;;;;;6.20;3.07;;;;;;;28.79;33.20;100524.77;1711761;82;21051;-73
2022/08/30 10:23:15;;;;;;;6.23;3.70;;;;;;;28.82;33.78;100526.16;1715196;83;21074;-71
2022/08/30 10:25:53;;;;;;;5.73;3.00;;;;;;;28.86;33.00;100537.19;1706312;83;21844;-72
2022/08/30 10:28:27;;;;;;;5.73;2.40;;;;;;;28.74;33.28;100521.21;1709261;82;21051;-72
2022/08/30 10:31:47;;;;;;;5.70;2.50;;;;;;;28.78;32.84;100525.36;1714517;82;21079;-71
2022/08/30 10:34:18;;;;;;;4.70;2.87;;;;;;;28.82;32.76;100522.63;1714631;82;20988;-72
2022/08/30 10:36:53;;;;;;;3.87;2.47;;;;;;;28.85;32.88;100516.38;1714427;82;21074;-73
2022/08/30 10:39:25;;;;;;;6.47;2.63;;;;;;;28.94;32.97;100512.70;1710553;82;21518;-71
2022/08/30 10:42:10;;;;;;;4.43;2.37;;;;;;;28.94;32.44;100503.08;1715619;82;21021;-73
2022/08/30 10:44:40;;;;;;;4.40;2.70;;;;;;;28.92;32.74;100510.91;1713848;82;21008;-73
2022/08/30 10:47:33;;;;;;;3.63;2.43;;;;;;;28.92;33.38;100503.48;1709905;82;21098;-74
2022/08/30 10:50:08;;;;;;;5.47;2.63;;;;;;;28.98;33.38;100501.92;1715413;82;21067;-72
2022/08/30 10:52:57;;;;;;;4.97;2.60;;;;;;;29.09;33.28;100503.97;1715599;82;21496;-73
2022/08/30 10:55:30;;;;;;;4.10;2.33;;;;;;;29.17;33.45;100505.61;1711685;82;21107;-73
2022/08/30 10:58:02;;;;;;;3.73;2.57;;;;;;;29.15;33.09;100503.81;1715733;82;20955;-73
2022/08/30 11:00:59;;;;;;;4.57;2.23;;;;;;;29.09;33.08;100510.29;1714998;82;21102;-73
2022/08/30 11:04:08;;;;;;;5.87;3.07;;;;;;;29.11;33.39;100494.77;1715864;82;21538;-73
2022/08/30 11:07:07;;;;;;;3.87;2.37;;;;;;;29.15;33.32;100503.22;1715150;83;21794;-73
2022/08/30 11:09:49;;;;;;;4.03;2.40;;;;;;;29.24;33.58;100488.34;1715803;82;21067;-72
2022/08/30 11:12:35;;;;;;;4.33;2.53;;;;;;;29.24;32.55;100502.11;1716864;82;21016;-71
2022/08/30 11:15:13;;;;;;;5.77;2.80;;;;;;;29.27;33.77;100491.70;1717475;83;21074;-73
2022/08/30 11:18:05;;;;;;;4.33;2.50;;;;;;;29.31;33.72;100489.75;1717838;83;21479;-72
2022/08/30 11:20:40;;;;;;;4.40;2.58;;;;;;;29.36;33.08;100485.27;1691753;82;21107;-73
2022/08/30 11:23:33;;;;;;;4.00;2.53;;;;;;;29.39;33.93;100480.38;1729966;82;21086;-74
2022/08/30 11:26:11;;;;;;;4.03;2.70;;;;;;;29.47;33.73;100489.44;1715425;82;21012;-74
2022/08/30 11:28:48;;;;;;;4.37;2.70;;;;;;;29.53;33.44;100485.13;1713890;82;21494;-73
2022/08/30 11:31:34;;;;;;;4.90;2.97;;;;;;;29.52;33.74;100491.23;1716763;82;21011;-73
2022/08/30 11:34:01;;;;;;;5.23;2.80;;;;;;;29.57;33.64;100486.71;1715784;82;21275;-71
2022/08/30 11:36:37;;;;;;;7.03;2.77;;;;;;;29.56;33.40;100481.02;1715015;82;22592;-73
2022/08/30 11:39:23;;;;;;;5.30;2.70;;;;;;;29.55;34.00;100484.14;1666851;82;21068;-74
2022/08/30 11:42:01;;;;;;;3.80;2.73;;;;;;;29.57;33.66;100488.09;1634043;82;21532;-73
2022/08/30 11:44:31;;;;;;;4.13;2.60;;;;;;;29.60;33.79;100481.05;1706814;83;21000;-73
2022/08/30 11:47:01;;;;;;;4.00;2.43;;;;;;;29.68;33.62;100484.83;1715194;82;21785;-73
2022/08/30 11:49:44;;;;;;;3.50;2.27;;;;;;;29.75;33.91;100477.77;1712122;82;21079;-74
2022/08/30 11:52:38;;;;;;;4.23;2.70;;;;;;;29.76;34.04;100471.86;1670202;82;21106;-72
2022/08/30 11:55:28;;;;;;;5.97;3.10;;;;;;;29.81;33.54;100471.49;1698189;82;21113;-73
2022/08/30 11:58:38;;;;;;;4.00;2.40;;;;;;;29.80;33.19;100471.27;1700628;82;21619;-72
2022/08/30 12:01:22;;;;;;;4.37;2.70;;;;;;;29.74;33.55;100480.30;1695902;82;21240;-74
2022/08/30 12:04:14;;;;;;;3.50;2.40;;;;;;;29.75;33.18;100480.52;1698305;82;21085;-73
2022/08/30 12:06:53;;;;;;;4.67;2.30;;;;;;;29.82;33.35;100482.69;1705197;83;21085;-73
2022/08/30 12:09:29;;;;;;;6.17;2.43;;;;;;;29.85;32.71;100472.88;1701568;84;21126;-72
2022/08/30 12:12:09;;;;;;;4.03;3.00;;;;;;;29.87;33.27;100474.63;1701424;84;21135;-72
2022/08/30 12:14:53;;;;;;;5.80;2.80;;;;;;;29.84;33.47;100473.44;1697088;84;21275;-73
2022/08/30 12:20:46;;;;;;;4.53;2.40;;;;;;;29.79;32.95;100462.04;1694958;82;21068;-73
2022/08/30 12:23:24;;;;;;;3.80;1.90;;;;;;;29.81;33.81;100461.05;1698328;82;21063;-73
2022/08/30 12:26:11;;;;;;;4.47;2.47;;;;;;;29.91;33.03;100456.95;1659615;82;21090;-71
2022/08/30 12:28:38;;;;;;;4.13;2.40;;;;;;;30.00;32.54;100463.44;1696334;83;21170;-73
2022/08/30 12:31:19;;;;;;;3.77;2.40;;;;;;;29.98;32.84;100455.36;1697846;82;21081;-74
2022/08/30 12:33:57;;;;;;;3.22;2.30;;;;;;;29.98;32.82;100456.73;1704797;82;21063;-76
2022/08/30 12:36:39;;;;;;;3.93;2.40;;;;;;;29.98;32.55;100453.42;1672122;85;38177;-72